Time;durP1;ratioP1;P1;durP2;ratioP2;P2;SDS_P1;SDS_P2;PMS_P1;PMS_P2;Temp;Humidity;BMP_temperature;BMP_pressure;BME280_temperature;BME280_humidity;BME280_pressure;Samples;Min_cycle;Max_cycle;Signal;HPM_P1;HPM_P2
2022/12/26 00:01:27;;;;;;;31.53;12.70;;;7.00;99.90;;;;;;4931862;29;20445;-52
2022/12/26 00:03:54;;;;;;;27.90;13.30;;;7.00;99.90;;;;;;4933229;29;20202;-52
2022/12/26 00:06:22;;;;;;;31.50;14.80;;;7.00;99.90;;;;;;4933082;29;20561;-52
2022/12/26 00:08:48;;;;;;;30.23;12.03;;;6.90;99.90;;;;;;4924956;29;20489;-52
2022/12/26 00:11:15;;;;;;;28.53;11.50;;;7.00;99.90;;;;;;4924990;29;20442;-52
2022/12/26 00:13:41;;;;;;;33.20;13.60;;;6.90;99.90;;;;;;4926544;29;20201;-52
2022/12/26 00:16:12;;;;;;;30.27;12.03;;;6.90;99.90;;;;;;4898454;29;20820;-53
2022/12/26 00:18:38;;;;;;;32.40;12.87;;;6.90;99.90;;;;;;4926204;29;20508;-52
2022/12/26 00:21:06;;;;;;;45.37;13.27;;;6.90;99.90;;;;;;4916241;29;20434;-52
2022/12/26 00:23:35;;;;;;;31.03;12.13;;;6.90;99.90;;;;;;4920510;29;20912;-52
2022/12/26 00:26:06;;;;;;;38.00;11.53;;;6.90;99.90;;;;;;4917621;29;20454;-52
2022/12/26 00:28:32;;;;;;;44.93;14.53;;;6.90;99.90;;;;;;4932341;29;20461;-52
2022/12/26 00:30:58;;;;;;;37.93;12.70;;;6.90;99.90;;;;;;4933802;29;20796;-51
2022/12/26 00:33:23;;;;;;;32.00;12.87;;;6.90;99.90;;;;;;4933988;29;20199;-52
2022/12/26 00:35:49;;;;;;;30.50;11.83;;;6.90;99.90;;;;;;4934656;29;20324;-51
2022/12/26 00:38:15;;;;;;;27.20;10.87;;;6.90;99.90;;;;;;4933046;29;20218;-51
2022/12/26 00:40:42;;;;;;;27.07;11.30;;;6.90;99.90;;;;;;4919537;29;20186;-52
2022/12/26 00:43:10;;;;;;;31.33;11.07;;;6.90;99.90;;;;;;4933445;29;20453;-52
2022/12/26 00:45:36;;;;;;;33.70;12.10;;;6.90;99.90;;;;;;4915187;29;20434;-51
2022/12/26 00:48:02;;;;;;;26.37;10.90;;;6.90;99.90;;;;;;4926724;29;20446;-51
2022/12/26 00:50:27;;;;;;;28.83;10.90;;;6.90;99.90;;;;;;4916555;29;20313;-51
2022/12/26 00:52:55;;;;;;;41.77;11.80;;;6.80;99.90;;;;;;4915744;29;20175;-52
2022/12/26 00:55:21;;;;;;;48.63;12.43;;;6.90;99.90;;;;;;4931242;29;20186;-51
2022/12/26 00:57:46;;;;;;;51.30;11.27;;;6.80;99.90;;;;;;4931126;29;20453;-51
2022/12/26 01:00:13;;;;;;;40.43;12.10;;;6.80;99.90;;;;;;4922613;29;20206;-52
2022/12/26 01:02:38;;;;;;;34.27;11.00;;;6.80;99.90;;;;;;4938160;29;20269;-51
2022/12/26 01:05:09;;;;;;;35.93;11.53;;;6.80;99.90;;;;;;4924936;29;20514;-52
2022/12/26 01:07:36;;;;;;;93.57;12.60;;;6.80;99.90;;;;;;4922956;29;20217;-51
2022/12/26 01:10:03;;;;;;;89.27;12.43;;;6.80;99.90;;;;;;4935912;29;20462;-52
2022/12/26 01:12:30;;;;;;;87.80;13.03;;;6.80;99.90;;;;;;4919464;29;20443;-51
2022/12/26 01:14:57;;;;;;;59.30;12.00;;;6.80;99.90;;;;;;4929549;29;20438;-53
2022/12/26 01:17:23;;;;;;;35.30;10.60;;;6.80;99.90;;;;;;4937009;29;20453;-51
2022/12/26 01:19:48;;;;;;;39.87;10.93;;;6.80;99.90;;;;;;4921996;29;20466;-52
2022/12/26 01:22:14;;;;;;;34.03;11.77;;;6.80;99.90;;;;;;4934312;29;20433;-51
2022/12/26 01:24:40;;;;;;;47.33;11.50;;;6.80;99.90;;;;;;4936776;29;20182;-52
2022/12/26 01:27:05;;;;;;;30.17;11.10;;;6.80;99.90;;;;;;4936222;29;20190;-52
2022/12/26 01:29:31;;;;;;;45.87;12.73;;;6.80;99.90;;;;;;4923571;29;20651;-51
2022/12/26 01:31:56;;;;;;;48.03;11.77;;;6.80;99.90;;;;;;4931277;29;20193;-52
2022/12/26 01:34:22;;;;;;;104.80;13.97;;;6.80;99.90;;;;;;4935760;29;20285;-52
2022/12/26 01:36:48;;;;;;;37.90;11.30;;;6.80;99.90;;;;;;4937747;29;20913;-51
2022/12/26 01:39:13;;;;;;;85.43;13.60;;;6.80;99.90;;;;;;4906384;29;20218;-51
2022/12/26 01:41:39;;;;;;;43.03;11.03;;;6.90;99.90;;;;;;4926270;29;20198;-51
2022/12/26 01:44:42;;;;;;;103.57;13.13;;;6.80;99.90;;;;;;4922876;29;20629;-52
2022/12/26 01:47:08;;;;;;;58.00;13.63;;;6.90;99.90;;;;;;4933870;29;20214;-51
2022/12/26 01:49:40;;;;;;;49.33;13.03;;;6.90;99.90;;;;;;4925446;29;20586;-52
2022/12/26 01:52:11;;;;;;;79.10;13.40;;;6.90;99.90;;;;;;4918775;29;20633;-51
2022/12/26 01:54:43;;;;;;;57.30;13.60;;;6.90;99.90;;;;;;4929606;29;20509;-52
2022/12/26 01:57:15;;;;;;;101.70;15.97;;;6.90;99.90;;;;;;4935589;29;20789;-51
2022/12/26 01:59:40;;;;;;;66.63;15.03;;;6.90;99.90;;;;;;4924918;29;20719;-51
2022/12/26 02:02:07;;;;;;;57.07;14.07;;;6.90;99.90;;;;;;4918145;29;20462;-51
2022/12/26 02:07:21;;;;;;;51.30;14.80;;;6.90;99.90;;;;;;4927521;29;20452;-51
2022/12/26 02:09:47;;;;;;;55.30;14.97;;;6.90;99.90;;;;;;4934006;29;20533;-51
2022/12/26 02:12:20;;;;;;;59.93;13.10;;;6.90;99.90;;;;;;4935611;29;20510;-51
2022/12/26 02:14:46;;;;;;;63.93;14.17;;;6.90;99.90;;;;;;4935838;29;20190;-52
2022/12/26 02:17:13;;;;;;;49.57;14.47;;;6.90;99.90;;;;;;4935928;29;20442;-51
2022/12/26 02:19:47;;;;;;;44.80;15.30;;;6.90;99.90;;;;;;4934759;29;20517;-51
2022/12/26 02:22:40;;;;;;;48.97;15.67;;;6.90;99.90;;;;;;4935902;29;20482;-52
2022/12/26 02:25:34;;;;;;;44.50;17.23;;;7.00;99.90;;;;;;4936199;29;20430;-51
2022/12/26 02:28:44;;;;;;;49.90;15.63;;;7.00;99.90;;;;;;4936208;29;20434;-51
2022/12/26 02:31:21;;;;;;;46.20;15.53;;;7.00;99.90;;;;;;4916259;29;20438;-51
2022/12/26 02:33:57;;;;;;;42.97;15.30;;;7.00;99.90;;;;;;4922553;29;20469;-51
2022/12/26 02:36:32;;;;;;;51.47;15.60;;;7.00;99.90;;;;;;4933786;29;20951;-51
2022/12/26 02:39:09;;;;;;;39.93;15.47;;;6.90;99.90;;;;;;4934397;29;20469;-51
2022/12/26 02:41:44;;;;;;;101.83;18.70;;;6.90;99.90;;;;;;4929472;29;20936;-51
2022/12/26 02:47:37;;;;;;;63.50;16.33;;;6.80;99.90;;;;;;4918134;29;20461;-52
2022/12/26 03:13:13;;;;;;;50.40;13.23;;;6.90;99.90;;;;;;4935520;29;20466;-56
2022/12/26 03:18:45;;;;;;;51.17;14.80;;;6.90;99.90;;;;;;4935267;29;20472;-54
2022/12/26 03:21:13;;;;;;;81.50;15.00;;;6.90;99.90;;;;;;4933333;29;21247;-53
2022/12/26 03:23:42;;;;;;;47.23;14.17;;;7.00;99.90;;;;;;4928870;29;20435;-54
2022/12/26 03:31:46;;;;;;;77.57;15.63;;;7.10;99.90;;;;;;4919808;29;20460;-53
2022/12/26 03:34:17;;;;;;;89.13;15.33;;;7.10;99.90;;;;;;4934236;29;20438;-53
2022/12/26 03:36:42;;;;;;;55.13;14.00;;;7.10;99.90;;;;;;4926417;29;20194;-55
2022/12/26 03:39:17;;;;;;;37.70;13.27;;;7.10;99.90;;;;;;4925812;29;20474;-55
2022/12/26 04:20:44;;;;;;;45.93;13.97;;;7.30;99.90;;;;;;4924523;29;20449;-52
2022/12/26 04:46:01;;;;;;;45.33;15.80;;;7.50;99.90;;;;;;4931876;29;20448;-52
2022/12/26 04:51:11;;;;;;;54.47;14.60;;;7.50;99.90;;;;;;4919280;29;20582;-51
2022/12/26 04:53:37;;;;;;;44.77;15.90;;;7.40;99.90;;;;;;4924068;29;20430;-52
2022/12/26 04:56:03;;;;;;;48.83;15.00;;;7.40;99.90;;;;;;4924369;29;20568;-52
2022/12/26 04:58:29;;;;;;;34.67;12.77;;;7.40;99.90;;;;;;4933324;29;20305;-53
2022/12/26 05:09:32;;;;;;;44.83;14.63;;;7.50;99.90;;;;;;4918908;29;20187;-52
2022/12/26 05:09:34;;;;;;;43.00;14.53;;;7.40;99.90;;;;;;4929687;29;20457;-52
2022/12/26 05:12:07;;;;;;;48.47;13.90;;;7.40;99.90;;;;;;4919174;29;20419;-52
2022/12/26 05:14:37;;;;;;;43.90;13.50;;;7.40;99.90;;;;;;4920630;29;20937;-52
2022/12/26 05:30:54;;;;;;;43.13;14.70;;;7.60;99.90;;;;;;4929527;29;20477;-51
2022/12/26 05:36:04;;;;;;;45.53;15.87;;;7.50;99.90;;;;;;4935433;29;20257;-51
2022/12/26 05:38:30;;;;;;;41.53;15.13;;;7.50;99.90;;;;;;4936266;29;21083;-51
2022/12/26 05:40:55;;;;;;;45.90;17.10;;;7.60;99.90;;;;;;4935698;29;20197;-51
2022/12/26 05:43:21;;;;;;;40.43;15.63;;;7.60;99.90;;;;;;4935487;29;20265;-51
2022/12/26 05:45:47;;;;;;;47.80;16.30;;;7.60;99.90;;;;;;4931798;29;20289;-51
2022/12/26 05:48:12;;;;;;;46.20;17.07;;;7.60;99.90;;;;;;4911289;29;20203;-51
2022/12/26 05:50:38;;;;;;;45.93;16.90;;;7.60;99.90;;;;;;4925153;29;20293;-51
2022/12/26 05:53:03;;;;;;;51.87;17.07;;;7.60;99.90;;;;;;4933123;29;20225;-51
2022/12/26 05:55:29;;;;;;;51.13;18.30;;;7.70;99.90;;;;;;4929270;29;20550;-51
2022/12/26 05:57:55;;;;;;;56.30;18.93;;;7.70;99.90;;;;;;4935779;29;20194;-51
2022/12/26 06:00:21;;;;;;;48.80;19.57;;;7.60;99.90;;;;;;4919877;29;20226;-51
2022/12/26 06:02:46;;;;;;;58.30;20.00;;;7.70;99.90;;;;;;4923627;29;20542;-51
2022/12/26 06:05:12;;;;;;;58.37;21.10;;;7.60;99.90;;;;;;4944873;29;20650;-51
2022/12/26 06:07:38;;;;;;;61.33;20.83;;;7.60;99.90;;;;;;4940888;29;20620;-51
2022/12/26 06:10:05;;;;;;;65.50;22.40;;;7.60;99.90;;;;;;4927915;29;20270;-51
2022/12/26 06:12:31;;;;;;;64.10;21.87;;;7.70;99.90;;;;;;4928058;29;20213;-51
2022/12/26 06:14:56;;;;;;;61.87;20.80;;;7.70;99.90;;;;;;4917003;29;20415;-50
2022/12/26 06:17:22;;;;;;;65.80;21.33;;;7.70;99.90;;;;;;4932231;29;20263;-51
2022/12/26 06:19:47;;;;;;;71.97;23.83;;;7.70;99.90;;;;;;4916957;29;20210;-51
2022/12/26 06:22:13;;;;;;;68.67;22.80;;;7.70;99.90;;;;;;4922953;29;20222;-51
2022/12/26 06:24:38;;;;;;;70.07;22.80;;;7.70;99.90;;;;;;4935268;29;20196;-51
2022/12/26 06:27:04;;;;;;;66.40;22.87;;;7.80;99.90;;;;;;4927374;29;20229;-53
2022/12/26 06:29:30;;;;;;;79.70;24.50;;;7.80;99.90;;;;;;4935331;29;20194;-51
2022/12/26 06:31:55;;;;;;;69.57;24.37;;;7.70;99.90;;;;;;4931210;29;20281;-51
2022/12/26 06:34:21;;;;;;;79.40;24.73;;;7.80;99.90;;;;;;4934650;29;20205;-51
2022/12/26 06:36:46;;;;;;;77.43;23.33;;;7.80;99.90;;;;;;4935966;29;20198;-51
2022/12/26 06:39:12;;;;;;;72.63;22.70;;;7.80;99.90;;;;;;4935338;29;20256;-51
2022/12/26 06:41:38;;;;;;;67.40;22.70;;;7.80;99.90;;;;;;4926901;29;20247;-50
2022/12/26 06:44:03;;;;;;;69.70;23.90;;;7.90;99.90;;;;;;4922106;29;20183;-52
2022/12/26 06:46:29;;;;;;;55.63;21.40;;;7.80;99.90;;;;;;4932998;29;20190;-51
2022/12/26 06:48:55;;;;;;;66.93;22.60;;;7.80;99.90;;;;;;4935553;29;20230;-50
2022/12/26 06:51:24;;;;;;;56.80;22.30;;;7.80;99.90;;;;;;4931291;29;20514;-51
2022/12/26 06:53:51;;;;;;;57.87;20.60;;;7.90;99.90;;;;;;4917594;29;20707;-55
2022/12/26 06:56:19;;;;;;;53.03;19.87;;;7.90;99.90;;;;;;4932684;29;20478;-56
2022/12/26 06:58:45;;;;;;;57.73;21.17;;;7.90;99.90;;;;;;4941360;29;20458;-54
2022/12/26 07:01:15;;;;;;;52.57;19.30;;;7.80;99.90;;;;;;4934526;29;20536;-55
2022/12/26 07:03:41;;;;;;;49.53;19.20;;;7.90;99.90;;;;;;4932433;29;20435;-55
2022/12/26 07:06:23;;;;;;;45.07;18.00;;;7.90;99.90;;;;;;4902020;29;20446;-55
2022/12/26 07:08:50;;;;;;;43.93;18.40;;;7.90;99.90;;;;;;4917698;29;20430;-56
2022/12/26 07:11:18;;;;;;;50.00;19.17;;;7.90;99.90;;;;;;4916178;29;20554;-55
2022/12/26 07:13:44;;;;;;;51.87;20.67;;;7.90;99.90;;;;;;4935400;29;20436;-55
2022/12/26 07:16:10;;;;;;;44.43;18.80;;;8.00;99.90;;;;;;4921843;29;20932;-55
2022/12/26 07:18:36;;;;;;;47.93;17.57;;;8.00;99.90;;;;;;4934959;29;20554;-56
2022/12/26 07:21:07;;;;;;;45.07;18.90;;;8.10;99.90;;;;;;4930965;29;20198;-56
2022/12/26 07:23:33;;;;;;;46.53;19.33;;;8.10;99.90;;;;;;4935715;29;20417;-51
2022/12/26 07:25:59;;;;;;;47.33;18.47;;;8.10;99.90;;;;;;4925785;29;20809;-51
2022/12/26 07:28:25;;;;;;;44.80;19.60;;;8.10;99.90;;;;;;4931332;29;20686;-51
2022/12/26 07:30:51;;;;;;;52.63;21.10;;;8.10;99.90;;;;;;4927948;29;20184;-50
2022/12/26 07:33:16;;;;;;;45.90;20.70;;;8.10;99.90;;;;;;4923500;29;20450;-51
2022/12/26 07:35:43;;;;;;;47.77;20.70;;;8.20;99.90;;;;;;4929630;29;20198;-51
2022/12/26 07:38:09;;;;;;;49.97;21.30;;;8.10;99.90;;;;;;4932212;29;20186;-52
2022/12/26 07:40:35;;;;;;;48.63;21.33;;;8.20;99.90;;;;;;4935162;29;20927;-51
2022/12/26 07:43:01;;;;;;;50.00;21.37;;;8.20;99.90;;;;;;4933187;29;20504;-51
2022/12/26 07:45:27;;;;;;;46.83;20.60;;;8.20;99.90;;;;;;4933323;29;20190;-52
2022/12/26 07:47:53;;;;;;;50.07;21.00;;;8.20;99.90;;;;;;4929770;29;20187;-52
2022/12/26 07:50:19;;;;;;;40.90;19.90;;;8.20;99.90;;;;;;4916039;29;20235;-51
2022/12/26 07:52:45;;;;;;;44.07;20.77;;;8.20;99.90;;;;;;4926671;29;20464;-51
2022/12/26 07:55:10;;;;;;;43.97;21.00;;;8.30;99.90;;;;;;4934049;29;20898;-51
2022/12/26 07:57:36;;;;;;;42.33;19.40;;;8.20;99.90;;;;;;4925348;29;20205;-52
2022/12/26 08:00:03;;;;;;;42.67;19.90;;;8.20;99.90;;;;;;4931675;29;20206;-52
2022/12/26 08:02:29;;;;;;;45.70;21.37;;;8.20;99.90;;;;;;4920117;29;20182;-51
2022/12/26 08:04:54;;;;;;;40.33;20.53;;;8.20;99.90;;;;;;4932342;29;20500;-51
2022/12/26 08:07:20;;;;;;;44.87;21.20;;;8.10;99.90;;;;;;4934619;29;20182;-51
2022/12/26 08:09:46;;;;;;;47.50;22.47;;;8.20;99.90;;;;;;4933638;29;20200;-51
2022/12/26 08:12:12;;;;;;;47.37;22.97;;;8.20;99.90;;;;;;4933469;29;20198;-51
2022/12/26 08:14:38;;;;;;;46.90;23.10;;;8.20;99.90;;;;;;4926299;29;20249;-51
2022/12/26 08:17:04;;;;;;;50.33;23.80;;;8.20;99.90;;;;;;4934839;29;20399;-51
2022/12/26 08:19:29;;;;;;;52.50;24.23;;;8.30;99.90;;;;;;4921667;29;20467;-51
2022/12/26 08:21:55;;;;;;;53.10;24.80;;;8.30;99.90;;;;;;4934266;29;20186;-52
2022/12/26 08:24:20;;;;;;;53.43;24.10;;;8.30;99.90;;;;;;4921561;29;20206;-51
2022/12/26 08:26:46;;;;;;;50.13;24.07;;;8.30;99.90;;;;;;4929891;29;20218;-52
2022/12/26 08:29:12;;;;;;;55.03;25.50;;;8.40;99.90;;;;;;4921925;29;20190;-52
2022/12/26 08:31:38;;;;;;;51.10;25.47;;;8.40;99.90;;;;;;4925301;29;20191;-51
2022/12/26 08:34:03;;;;;;;50.80;25.47;;;8.40;99.90;;;;;;4921695;29;20273;-52
2022/12/26 08:36:29;;;;;;;53.77;24.77;;;8.40;99.90;;;;;;4930401;29;20538;-52
2022/12/26 08:38:55;;;;;;;50.97;25.00;;;8.40;99.90;;;;;;4928394;29;20229;-51
2022/12/26 08:41:21;;;;;;;51.30;25.17;;;8.40;99.90;;;;;;4931322;29;20249;-52
2022/12/26 08:43:48;;;;;;;50.87;24.90;;;8.40;99.90;;;;;;4930649;29;20438;-51
2022/12/26 08:46:14;;;;;;;57.40;25.43;;;8.40;99.90;;;;;;4933515;29;20174;-52
2022/12/26 08:48:40;;;;;;;52.70;26.20;;;8.40;99.90;;;;;;4933978;29;20457;-52
2022/12/26 08:51:10;;;;;;;53.80;27.70;;;8.50;99.90;;;;;;4930866;29;20199;-54
2022/12/26 08:53:36;;;;;;;51.43;26.20;;;8.50;99.90;;;;;;4935338;29;20512;-52
2022/12/26 08:56:04;;;;;;;47.30;23.33;;;8.50;99.90;;;;;;4918403;29;20897;-51
2022/12/26 08:58:30;;;;;;;51.30;25.50;;;8.50;99.90;;;;;;4916492;29;20430;-52
2022/12/26 09:01:14;;;;;;;51.33;24.60;;;8.50;99.90;;;;;;4921806;29;20454;-52
2022/12/26 09:03:40;;;;;;;52.30;26.00;;;8.60;99.90;;;;;;4929515;29;20430;-52
2022/12/26 09:06:07;;;;;;;50.33;24.40;;;8.60;99.90;;;;;;4928569;29;20933;-51
2022/12/26 09:08:33;;;;;;;49.50;24.47;;;8.60;99.90;;;;;;4934425;29;20418;-52
2022/12/26 09:11:08;;;;;;;48.30;23.33;;;8.70;99.90;;;;;;4926498;29;20477;-51
2022/12/26 09:13:34;;;;;;;47.00;23.57;;;8.70;99.90;;;;;;4934325;29;20861;-52
2022/12/26 09:16:28;;;;;;;51.93;25.03;;;8.70;99.90;;;;;;4923483;29;20550;-52
2022/12/26 09:18:59;;;;;;;50.00;23.60;;;8.70;99.90;;;;;;4925484;29;20482;-52
2022/12/26 09:21:26;;;;;;;49.17;23.43;;;8.70;99.90;;;;;;4932033;29;20954;-52
2022/12/26 09:24:00;;;;;;;54.47;24.93;;;8.70;99.90;;;;;;4927930;29;20450;-51
2022/12/26 09:26:26;;;;;;;49.87;23.10;;;8.70;99.90;;;;;;4937802;29;20507;-51
2022/12/26 09:28:52;;;;;;;43.13;23.77;;;8.70;99.90;;;;;;4922470;29;20454;-52
2022/12/26 09:31:21;;;;;;;49.43;22.30;;;8.70;99.90;;;;;;4929926;29;20504;-52
2022/12/26 09:33:48;;;;;;;42.90;20.70;;;8.70;99.90;;;;;;4932369;29;20198;-52
2022/12/26 09:36:16;;;;;;;41.83;20.97;;;8.70;99.90;;;;;;4921341;29;20447;-52
2022/12/26 09:38:43;;;;;;;43.50;21.80;;;8.80;99.90;;;;;;4929100;29;20474;-52
2022/12/26 09:41:30;;;;;;;39.37;20.67;;;8.80;99.90;;;;;;4929698;29;20446;-52
2022/12/26 09:44:20;;;;;;;38.23;20.37;;;8.80;99.90;;;;;;4933046;29;20501;-51
2022/12/26 09:47:15;;;;;;;44.47;21.63;;;8.80;99.90;;;;;;4927589;29;20434;-53
2022/12/26 09:49:50;;;;;;;40.93;19.90;;;8.80;99.90;;;;;;4921388;29;20545;-52
2022/12/26 09:52:35;;;;;;;40.73;20.40;;;8.80;99.90;;;;;;4926645;29;20972;-53
2022/12/26 09:55:30;;;;;;;37.87;20.20;;;8.80;99.90;;;;;;4925351;29;20452;-54
2022/12/26 09:58:03;;;;;;;36.53;18.47;;;8.90;99.90;;;;;;4906087;29;20585;-53
2022/12/26 10:00:37;;;;;;;37.80;19.40;;;8.90;99.90;;;;;;4924945;29;20482;-52
2022/12/26 10:03:03;;;;;;;39.17;19.73;;;8.90;99.90;;;;;;4920765;29;20914;-52
2022/12/26 10:05:38;;;;;;;36.77;19.03;;;8.90;99.90;;;;;;4917730;29;20458;-52
2022/12/26 10:08:23;;;;;;;38.50;19.90;;;8.90;98.30;;;;;;4934655;29;20777;-53
2022/12/26 10:11:03;;;;;;;37.10;19.00;;;9.00;82.20;;;;;;4919196;29;20435;-52
2022/12/26 10:13:53;;;;;;;32.73;18.07;;;9.00;68.40;;;;;;4929828;29;20875;-53
2022/12/26 10:16:43;;;;;;;31.90;16.97;;;9.00;55.90;;;;;;4901809;29;20529;-52
2022/12/26 10:19:09;;;;;;;33.97;18.57;;;9.00;41.00;;;;;;4917556;29;20558;-52
2022/12/26 10:21:37;;;;;;;33.27;17.83;;;9.00;22.70;;;;;;4917613;29;20541;-53
2022/12/26 10:24:07;;;;;;;35.57;18.23;;;9.00;10.30;;;;;;4928387;29;20218;-54
2022/12/26 10:26:37;;;;;;;34.43;18.47;;;9.00;1.00;;;;;;4936007;29;20932;-54
2022/12/26 10:29:09;;;;;;;32.27;17.00;;;9.00;1.00;;;;;;4933719;29;20476;-53
2022/12/26 10:31:52;;;;;;;32.07;17.47;;;9.10;1.00;;;;;;4943693;28;20440;-52
2022/12/26 10:34:39;;;;;;;31.40;16.80;;;9.10;1.00;;;;;;4936236;29;20431;-53
2022/12/26 10:37:26;;;;;;;36.80;17.50;;;9.00;1.00;;;;;;4936233;29;20521;-53
2022/12/26 10:40:10;;;;;;;32.70;17.37;;;9.10;1.00;;;;;;4908136;29;21038;-60
2022/12/26 10:42:42;;;;;;;26.97;16.10;;;9.10;1.00;;;;;;4924871;29;20505;-53
2022/12/26 10:45:18;;;;;;;31.60;16.70;;;9.10;1.00;;;;;;4915882;29;20431;-52
2022/12/26 10:47:47;;;;;;;33.17;16.20;;;9.20;1.00;;;;;;4919966;29;20985;-53
2022/12/26 10:50:29;;;;;;;31.43;17.43;;;9.10;1.00;;;;;;4920234;29;20478;-53
2022/12/26 10:52:56;;;;;;;28.47;15.53;;;9.20;1.00;;;;;;4916361;29;20442;-54
2022/12/26 10:55:27;;;;;;;25.43;15.90;;;9.30;1.00;;;;;;4915697;29;20449;-52
2022/12/26 10:57:53;;;;;;;29.57;16.83;;;9.30;1.00;;;;;;4915358;29;20951;-53
2022/12/26 11:00:25;;;;;;;29.57;16.53;;;9.40;1.00;;;;;;4915623;29;20485;-52
2022/12/26 11:03:09;;;;;;;27.57;15.33;;;9.40;1.00;;;;;;4922247;29;20957;-53
2022/12/26 11:05:42;;;;;;;31.83;15.60;;;9.40;1.00;;;;;;4927604;29;20456;-53
2022/12/26 11:08:25;;;;;;;25.37;14.63;;;9.40;1.00;;;;;;4928867;29;20434;-52
2022/12/26 11:11:22;;;;;;;28.30;16.13;;;9.40;1.00;;;;;;4924912;29;20942;-53
2022/12/26 11:13:55;;;;;;;28.27;16.53;;;9.40;1.00;;;;;;4913228;29;20447;-52
2022/12/26 11:16:37;;;;;;;32.67;15.47;;;9.40;1.00;;;;;;4920991;29;20450;-53
2022/12/26 11:19:03;;;;;;;30.50;15.03;;;9.30;1.00;;;;;;4920553;29;20466;-53
2022/12/26 11:21:31;;;;;;;35.23;14.43;;;9.40;1.00;;;;;;4928190;29;20449;-52
2022/12/26 11:24:19;;;;;;;28.43;14.77;;;9.40;1.00;;;;;;4922280;29;20481;-53
2022/12/26 11:26:45;;;;;;;27.90;15.30;;;9.30;1.00;;;;;;4915377;29;20855;-53
2022/12/26 11:29:24;;;;;;;25.10;14.90;;;9.30;1.00;;;;;;4919549;29;20514;-53
2022/12/26 11:31:55;;;;;;;27.07;13.83;;;9.30;1.00;;;;;;4923958;29;20439;-53
2022/12/26 11:34:35;;;;;;;27.53;14.93;;;9.30;1.00;;;;;;4899933;29;20449;-53
2022/12/26 11:37:02;;;;;;;25.00;13.87;;;9.30;1.00;;;;;;4932761;29;20795;-53
2022/12/26 11:39:32;;;;;;;25.10;14.93;;;9.30;1.00;;;;;;4927545;29;20484;-53
2022/12/26 11:41:58;;;;;;;26.03;13.73;;;9.40;1.00;;;;;;4935429;29;20445;-53
2022/12/26 11:44:34;;;;;;;21.70;12.40;;;9.40;1.00;;;;;;4924631;29;20430;-53
2022/12/26 11:47:21;;;;;;;26.87;13.93;;;9.50;1.00;;;;;;4933866;29;20521;-53
2022/12/26 11:50:06;;;;;;;26.90;13.50;;;9.50;1.00;;;;;;4934065;29;20505;-53
2022/12/26 11:52:51;;;;;;;22.97;12.77;;;9.50;99.90;;;;;;4934991;29;20777;-52
2022/12/26 11:55:23;;;;;;;24.03;13.30;;;9.50;99.90;;;;;;4936687;29;20462;-53
2022/12/26 11:58:00;;;;;;;22.60;12.67;;;9.50;99.90;;;;;;4932916;29;20457;-53
2022/12/26 12:00:27;;;;;;;20.10;12.23;;;9.50;99.90;;;;;;4930093;29;20818;-52
2022/12/26 12:02:53;;;;;;;25.67;12.70;;;9.50;99.90;;;;;;4930789;29;20501;-53
2022/12/26 12:05:27;;;;;;;24.80;12.83;;;9.50;99.90;;;;;;4932689;29;20489;-53
2022/12/26 12:08:04;;;;;;;24.67;13.10;;;9.50;99.90;;;;;;4934369;29;20452;-53
2022/12/26 12:10:46;;;;;;;23.80;12.33;;;9.50;99.90;;;;;;4925529;29;20462;-52
2022/12/26 12:13:30;;;;;;;25.50;12.97;;;9.50;99.90;;;;;;4929396;29;20943;-52
2022/12/26 12:16:20;;;;;;;30.17;13.17;;;9.40;99.90;;;;;;4924390;29;20450;-52
2022/12/26 12:19:12;;;;;;;24.13;12.13;;;9.40;99.90;;;;;;4915791;29;20957;-52
2022/12/26 12:21:55;;;;;;;25.30;11.93;;;9.40;1.00;;;;;;4921952;29;20475;-53
2022/12/26 12:24:33;;;;;;;21.70;12.37;;;9.40;1.00;;;;;;4929847;29;20505;-53
2022/12/26 12:27:13;;;;;;;18.47;12.50;;;9.30;1.00;;;;;;4918221;29;20450;-52
2022/12/26 12:29:48;;;;;;;25.40;13.70;;;9.30;1.00;;;;;;4917577;29;21596;-53
2022/12/26 12:32:26;;;;;;;20.30;11.37;;;9.30;1.00;;;;;;4920862;29;20507;-53
2022/12/26 12:35:12;;;;;;;20.33;12.13;;;9.30;1.00;;;;;;4919154;29;20876;-56
2022/12/26 12:38:17;;;;;;;19.43;12.40;;;9.30;1.00;;;;;;4897957;29;21036;-56
2022/12/26 12:41:17;;;;;;;21.30;11.40;;;9.40;1.00;;;;;;4921355;29;20466;-58
2022/12/26 12:44:02;;;;;;;21.10;11.70;;;9.30;1.00;;;;;;4915766;29;20431;-58
2022/12/26 12:46:34;;;;;;;20.93;11.63;;;9.40;1.00;;;;;;4914626;29;20521;-57
2022/12/26 12:49:23;;;;;;;20.10;12.10;;;9.40;1.00;;;;;;4917916;29;20470;-57
2022/12/26 12:52:02;;;;;;;20.27;10.87;;;9.40;1.00;;;;;;4911725;29;20445;-57
2022/12/26 12:54:51;;;;;;;20.80;10.73;;;9.40;1.00;;;;;;4926937;29;20470;-56
2022/12/26 12:57:23;;;;;;;21.90;10.87;;;9.40;1.00;;;;;;4935478;29;20438;-56
2022/12/26 13:00:03;;;;;;;17.00;10.27;;;9.40;1.00;;;;;;4933413;29;20486;-56
2022/12/26 13:02:38;;;;;;;17.93;10.80;;;9.40;1.00;;;;;;4930001;29;20469;-56
2022/12/26 13:05:20;;;;;;;14.27;9.70;;;9.40;1.00;;;;;;4936955;29;20453;-55
2022/12/26 13:07:53;;;;;;;16.20;9.83;;;9.40;1.00;;;;;;4936351;29;20521;-56
2022/12/26 13:10:24;;;;;;;15.03;9.67;;;9.40;1.00;;;;;;4935119;29;20524;-56
2022/12/26 13:12:51;;;;;;;15.53;9.80;;;9.50;1.00;;;;;;4931504;29;20422;-55
2022/12/26 13:15:39;;;;;;;12.43;9.10;;;9.50;1.00;;;;;;4934011;29;20446;-54
2022/12/26 13:18:21;;;;;;;16.23;8.03;;;9.60;99.90;;;;;;4935946;29;20522;-55
2022/12/26 13:20:53;;;;;;;12.93;7.33;;;9.60;99.90;;;;;;4924386;29;20845;-55
2022/12/26 13:26:42;;;;;;;8.30;4.87;;;9.60;99.90;;;;;;4928078;29;20449;-55
2022/12/26 13:29:34;;;;;;;4.70;3.80;;;9.50;44.80;;;;;;4927210;29;20445;-55
2022/12/26 13:32:03;;;;;;;7.17;2.50;;;9.50;1.00;;;;;;4932736;29;20446;-54
2022/12/26 13:34:30;;;;;;;4.00;1.43;;;9.50;1.00;;;;;;4935380;29;20442;-54
2022/12/26 13:36:57;;;;;;;3.33;1.77;;;9.50;1.50;;;;;;4937227;29;20473;-54
2022/12/26 13:39:26;;;;;;;4.43;1.53;;;9.50;99.90;;;;;;4932107;29;21037;-53
2022/12/26 13:44:38;;;;;;;5.80;1.30;;;9.30;1.00;;;;;;4924292;29;20444;-53
2022/12/26 13:47:04;;;;;;;3.30;1.33;;;9.10;13.70;;;;;;4932176;29;20826;-53
2022/12/26 13:49:38;;;;;;;5.83;1.23;;;9.10;99.90;;;;;;4917985;29;20834;-53
2022/12/26 13:52:10;;;;;;;3.87;1.20;;;8.90;88.80;;;;;;4918039;29;20725;-53
2022/12/26 13:55:05;;;;;;;2.63;1.30;;;8.70;99.90;;;;;;4935384;29;20441;-53
2022/12/26 13:57:38;;;;;;;2.60;1.10;;;8.60;1.00;;;;;;4924605;29;20458;-52
2022/12/26 14:00:16;;;;;;;4.40;1.17;;;8.50;99.90;;;;;;4921871;29;20518;-53
2022/12/26 14:03:18;;;;;;;5.70;1.20;;;8.40;99.90;;;;;;4918457;29;20454;-53
2022/12/26 14:05:58;;;;;;;7.30;1.37;;;8.30;99.90;;;;;;4918063;29;20467;-53
2022/12/26 14:08:42;;;;;;;21.67;1.60;;;8.10;1.00;;;;;;4931445;29;20477;-53
2022/12/26 14:11:43;;;;;;;5.23;1.27;;;8.10;1.00;;;;;;4936881;29;20401;-53
2022/12/26 14:14:24;;;;;;;4.73;1.60;;;7.90;22.40;;;;;;4922113;29;20957;-53
2022/12/26 14:17:23;;;;;;;7.67;1.07;;;7.80;99.90;;;;;;4929038;29;20778;-53
2022/12/26 14:20:00;;;;;;;3.83;1.20;;;7.70;99.90;;;;;;4936442;29;20473;-53
2022/12/26 14:22:48;;;;;;;6.33;1.30;;;7.60;99.90;;;;;;4934499;29;20448;-53
2022/12/26 14:25:38;;;;;;;17.73;2.20;;;7.50;99.90;;;;;;4933518;29;20450;-53
2022/12/26 14:28:41;;;;;;;9.33;1.47;;;7.50;99.90;;;;;;4918360;29;20441;-53
2022/12/26 14:31:37;;;;;;;10.57;1.77;;;7.40;99.90;;;;;;4933016;29;20550;-53
2022/12/26 14:34:11;;;;;;;7.97;1.43;;;7.30;99.90;;;;;;4931874;29;20473;-53
2022/12/26 14:36:53;;;;;;;10.50;1.37;;;7.20;99.90;;;;;;4934022;29;20449;-54
2022/12/26 14:39:56;;;;;;;6.07;1.50;;;7.10;99.90;;;;;;4925746;29;20542;-54
2022/12/26 14:45:33;;;;;;;6.40;1.83;;;7.00;99.90;;;;;;4926599;29;20469;-53
2022/12/26 14:47:59;;;;;;;17.70;1.70;;;7.00;99.90;;;;;;4916562;29;20532;-53
2022/12/26 14:50:40;;;;;;;7.67;1.50;;;7.00;99.90;;;;;;4932520;29;20593;-52
2022/12/26 14:53:27;;;;;;;18.27;2.20;;;7.00;99.90;;;;;;4933436;29;20194;-52
2022/12/26 14:56:00;;;;;;;4.03;1.13;;;7.00;99.90;;;;;;4931045;29;20477;-56
2022/12/26 14:58:40;;;;;;;9.13;1.70;;;6.90;99.90;;;;;;4932964;29;20450;-53
2022/12/26 15:01:08;;;;;;;9.20;2.40;;;6.70;99.90;;;;;;4914877;29;20461;-53
2022/12/26 15:03:46;;;;;;;9.63;1.73;;;6.60;1.00;;;;;;4934598;29;20465;-53
2022/12/26 15:06:18;;;;;;;7.13;2.00;;;6.60;1.00;;;;;;4931365;29;20477;-53
2022/12/26 15:08:52;;;;;;;8.07;1.47;;;6.50;1.00;;;;;;4932164;29;20442;-54
2022/12/26 15:11:41;;;;;;;9.70;1.60;;;6.50;1.00;;;;;;4931315;29;20437;-53
2022/12/26 15:14:39;;;;;;;12.40;1.93;;;6.40;1.00;;;;;;4933304;29;20586;-53
2022/12/26 15:17:07;;;;;;;8.00;1.77;;;6.40;1.00;;;;;;4926657;29;20553;-54
2022/12/26 15:19:42;;;;;;;12.30;1.67;;;6.30;1.00;;;;;;4935284;29;20474;-55
2022/12/26 15:22:26;;;;;;;7.93;1.70;;;6.30;1.00;;;;;;4921952;29;21097;-53